createdAt,value
2016-09-13T00:00:42.618Z,94.28
2016-09-13T00:01:42.939Z,93.8
2016-09-13T00:02:42.972Z,93.7
2016-09-13T00:03:42.909Z,94.48
2016-09-13T00:04:42.899Z,94.67
2016-09-13T00:05:42.573Z,94.67
2016-09-13T00:06:42.562Z,94.28
2016-09-13T00:07:42.888Z,93.99
2016-09-13T00:08:42.857Z,93.99
2016-09-13T00:09:42.848Z,93.8
2016-09-13T00:10:42.833Z,94.09
2016-09-13T00:11:42.831Z,93.9
2016-09-13T00:12:42.823Z,93.99
2016-09-13T00:13:42.503Z,93.99
2016-09-13T00:14:42.804Z,94.48
2016-09-13T00:15:42.470Z,94.38
2016-09-13T00:16:42.777Z,94.57
2016-09-13T00:17:42.770Z,94.57
2016-09-13T00:18:42.757Z,94.67
2016-09-13T00:19:42.765Z,94.86
2016-09-13T00:20:42.767Z,94.48
2016-09-13T00:21:42.727Z,94.48
2016-09-13T00:22:42.383Z,94.67
2016-09-13T00:23:42.712Z,94.38
2016-09-13T00:24:42.689Z,94.67
2016-09-13T00:25:42.683Z,94.48
2016-09-13T00:26:42.358Z,95.15
2016-09-13T00:27:42.653Z,95.68
2016-09-13T00:28:42.651Z,95.49
2016-09-13T00:29:42.321Z,95.2
2016-09-13T00:30:42.638Z,94.91
2016-09-13T00:31:42.616Z,94.67
2016-09-13T00:32:42.615Z,94.67
2016-09-13T00:33:42.599Z,94.72
2016-09-13T00:34:42.266Z,94.76
2016-09-13T00:35:42.581Z,95.06
2016-09-13T00:36:42.570Z,95.4
2016-09-13T00:37:42.553Z,95.4
2016-09-13T00:38:42.553Z,94.76
2016-09-13T00:39:42.219Z,94.76
2016-09-13T00:40:42.524Z,95.15
2016-09-13T00:41:42.214Z,95.44
2016-09-13T00:42:42.184Z,95.4
2016-09-13T00:43:42.490Z,94.82
2016-09-13T00:44:42.158Z,95.49
2016-09-13T00:45:42.468Z,95.78
2016-09-13T00:46:42.458Z,95.59
2016-09-13T00:47:42.460Z,95.2
2016-09-13T00:48:42.433Z,95.59
2016-09-13T00:49:42.430Z,94.72
2016-09-13T00:50:42.101Z,94.82
2016-09-13T00:51:42.400Z,95.2
2016-09-13T00:52:42.401Z,95.68
2016-09-13T00:53:42.380Z,95.2
2016-09-13T00:54:42.377Z,95.2
2016-09-13T00:55:42.367Z,95.4
2016-09-13T00:56:42.351Z,95.1
2016-09-13T00:57:42.031Z,95.2
2016-09-13T00:58:42.348Z,95.01
2016-09-13T00:59:42.329Z,94.72
2016-09-13T01:00:42.319Z,95.83
2016-09-13T01:01:42.304Z,95.45
2016-09-13T01:02:42.290Z,95.35
2016-09-13T01:03:42.277Z,95.06
2016-09-13T01:04:41.947Z,95.3
2016-09-13T01:05:42.254Z,95.1
2016-09-13T01:06:41.937Z,95.4
2016-09-13T01:07:42.235Z,95.1
2016-09-13T01:08:42.223Z,95.2
2016-09-13T01:09:42.239Z,95.59
2016-09-13T01:10:42.210Z,95.01
2016-09-13T01:11:42.197Z,95.2
2016-09-13T01:12:42.180Z,95.4
2016-09-13T01:13:41.856Z,95.2
2016-09-13T01:14:42.176Z,95.1
2016-09-13T01:15:42.157Z,95.2
2016-09-13T01:16:42.145Z,95.3
2016-09-13T01:17:42.128Z,95.1
2016-09-13T01:18:42.116Z,95.2
2016-09-13T01:19:42.111Z,95.59
2016-09-13T01:20:41.776Z,95.3
2016-09-13T01:21:42.086Z,95.1
2016-09-13T01:22:42.080Z,95.1
2016-09-13T01:23:42.063Z,94.91
2016-09-13T01:24:42.056Z,95.06
2016-09-13T01:25:41.735Z,94.96
2016-09-13T01:26:41.716Z,95.15
2016-09-13T01:27:41.703Z,95.06
2016-09-13T01:28:41.701Z,95.25
2016-09-13T01:29:41.685Z,94.77
2016-09-13T01:30:42.246Z,95.35
2016-09-13T01:31:41.977Z,94.87
2016-09-13T01:32:41.979Z,94.77
2016-09-13T01:33:41.957Z,95.25
2016-09-13T01:34:41.947Z,95.25
2016-09-13T01:35:41.947Z,94.77
2016-09-13T01:36:41.927Z,95.35
2016-09-13T01:37:41.918Z,94.77
2016-09-13T01:38:41.588Z,94.77
2016-09-13T01:39:41.902Z,95.15
2016-09-13T01:40:41.900Z,95.15
2016-09-13T01:41:41.887Z,95.15
2016-09-13T01:42:41.869Z,95.73
2016-09-13T01:43:41.540Z,95.45
2016-09-13T01:44:41.839Z,95.35
2016-09-13T01:45:41.826Z,94.67
2016-09-13T01:46:41.818Z,94.67
2016-09-13T01:47:41.806Z,95.64
2016-09-13T01:48:41.480Z,95.35
2016-09-13T01:49:41.469Z,95.64
2016-09-13T01:50:41.459Z,95.64
2016-09-13T01:51:41.768Z,95.35
2016-09-13T01:52:41.749Z,95.45
2016-09-13T01:53:41.741Z,95.45
2016-09-13T01:54:41.732Z,95.06
2016-09-13T01:55:41.731Z,95.35
2016-09-13T01:56:41.714Z,95.64
2016-09-13T01:57:41.707Z,95.45
2016-09-13T01:58:41.697Z,95.54
2016-09-13T01:59:41.352Z,95.83
2016-09-13T02:00:41.348Z,95.93
2016-09-13T02:01:41.659Z,95.54
2016-09-13T02:02:41.326Z,95.54
2016-09-13T02:03:41.637Z,95.64
2016-09-13T02:04:41.629Z,95.83
2016-09-13T02:05:41.620Z,95.93
2016-09-13T02:06:41.608Z,95.5
2016-09-13T02:07:41.385Z,96.41
2016-09-13T02:08:41.579Z,96.46
2016-09-13T02:09:41.671Z,96.26
2016-09-13T02:10:41.250Z,96.75
2016-09-13T02:11:41.547Z,96.75
2016-09-13T02:12:41.534Z,96.94
2016-09-13T02:13:41.633Z,97.14
2016-09-13T02:14:41.527Z,96.84
2016-09-13T02:15:41.520Z,96.84
2016-09-13T02:16:41.176Z,96.94
2016-09-13T02:17:41.166Z,96.66
2016-09-13T02:18:41.480Z,97.72
2016-09-13T02:19:41.492Z,97.33
2016-09-13T02:20:41.128Z,97.52
2016-09-13T02:21:41.440Z,97.42
2016-09-13T02:22:41.429Z,97.52
2016-09-13T02:23:41.114Z,97.42
2016-09-13T02:24:41.410Z,98
2016-09-13T02:25:41.420Z,98.1
2016-09-13T02:26:41.058Z,98.49
2016-09-13T02:27:41.381Z,98.39
2016-09-13T02:28:41.360Z,98.63
2016-09-13T02:29:41.362Z,98.44
2016-09-13T02:30:41.346Z,98.15
2016-09-13T02:31:41.337Z,98.3
2016-09-13T02:32:41.329Z,98.58
2016-09-13T02:33:41.322Z,98.2
2016-09-13T02:34:41.300Z,98.05
2016-09-13T02:35:41.285Z,98.3
2016-09-13T02:36:41.275Z,98.39
2016-09-13T02:37:41.270Z,97.81
2016-09-13T02:38:41.253Z,97.72
2016-09-13T02:39:40.936Z,97.47
2016-09-13T02:40:41.224Z,97.77
2016-09-13T02:41:41.214Z,98.49
2016-09-13T02:42:41.216Z,99.11
2016-09-13T02:43:41.192Z,98.92
2016-09-13T02:44:40.859Z,98.73
2016-09-13T02:45:41.176Z,98.44
2016-09-13T02:46:40.849Z,98.92
2016-09-13T02:47:40.840Z,98.83
2016-09-13T02:48:41.137Z,98.92
2016-09-13T02:49:41.135Z,98.92
2016-09-13T02:50:40.799Z,98.92
2016-09-13T02:51:40.775Z,98.44
2016-09-13T02:52:41.093Z,98.44
2016-09-13T02:53:40.760Z,98.92
2016-09-13T02:54:41.066Z,98.73
2016-09-13T02:55:41.055Z,99.69
2016-09-13T02:56:40.777Z,99.99
2016-09-13T02:57:41.029Z,99.99
2016-09-13T02:58:40.709Z,99.99
2016-09-13T02:59:41.017Z,99.99
2016-09-13T03:00:40.999Z,99.99
2016-09-13T03:01:41.000Z,99.99
2016-09-13T03:02:40.756Z,99.99
2016-09-13T03:03:40.663Z,99.99
2016-09-13T03:04:40.689Z,99.98
2016-09-13T03:05:40.948Z,99.99
2016-09-13T03:06:40.616Z,99.99
2016-09-13T03:07:40.924Z,99.69
2016-09-13T03:08:40.920Z,99.88
2016-09-13T03:09:40.911Z,99.99
2016-09-13T03:10:40.990Z,99.99
2016-09-13T03:11:40.879Z,99.98
2016-09-13T03:12:40.875Z,99.99
2016-09-13T03:13:40.857Z,99.99
2016-09-13T03:14:40.873Z,99.99
2016-09-13T03:15:40.506Z,99.99
2016-09-13T03:16:40.837Z,99.99
2016-09-13T03:17:40.817Z,99.99
2016-09-13T03:18:40.478Z,99.99
2016-09-13T03:19:40.840Z,99.99
2016-09-13T03:20:40.460Z,99.99
2016-09-13T03:21:40.813Z,99.99
2016-09-13T03:22:40.758Z,99.99
2016-09-13T03:23:40.423Z,99.99
2016-09-13T03:24:40.731Z,99.99
2016-09-13T03:25:40.716Z,99.99
2016-09-13T03:26:40.714Z,99.99
2016-09-13T03:27:40.696Z,99.99
2016-09-13T03:28:40.684Z,99.93
2016-09-13T03:29:40.669Z,99.99
2016-09-13T03:30:40.664Z,99.35
2016-09-13T03:31:40.339Z,99.69
2016-09-13T03:32:40.627Z,99.5
2016-09-13T03:33:40.699Z,99.69
2016-09-13T03:34:40.611Z,99.5
2016-09-13T03:35:40.611Z,99.69
2016-09-13T03:36:40.597Z,99.6
2016-09-13T03:37:40.579Z,99.31
2016-09-13T03:38:40.571Z,99.74
2016-09-13T03:39:40.562Z,99.45
2016-09-13T03:40:40.548Z,99.55
2016-09-13T03:41:40.539Z,99.26
2016-09-13T03:42:40.521Z,99.79
2016-09-13T03:43:40.506Z,99.6
2016-09-13T03:44:40.500Z,99.74
2016-09-13T03:45:40.490Z,99.4
2016-09-13T03:46:40.486Z,99.98
2016-09-13T03:47:40.472Z,99.99
2016-09-13T03:48:40.456Z,99.99
2016-09-13T03:49:40.128Z,99.99
2016-09-13T03:50:40.426Z,99.99
2016-09-13T03:51:40.415Z,99.99
2016-09-13T03:52:40.415Z,99.99
2016-09-13T03:53:40.401Z,99.99
2016-09-13T03:54:40.063Z,99.99
2016-09-13T03:55:40.377Z,99.93
2016-09-13T03:56:40.366Z,99.99
2016-09-13T03:57:40.344Z,99.99
2016-09-13T03:58:40.330Z,99.99
2016-09-13T03:59:40.321Z,99.65
2016-09-13T04:00:40.313Z,99.65
2016-09-13T04:01:40.316Z,99.65
2016-09-13T04:02:40.299Z,98.97
2016-09-13T04:03:40.273Z,99.26
2016-09-13T04:04:40.269Z,99.45
2016-09-13T04:05:39.934Z,99.84
2016-09-13T04:06:39.922Z,99.99
2016-09-13T04:07:39.909Z,99.98
2016-09-13T04:08:39.892Z,99.99
2016-09-13T04:09:40.203Z,99.99
2016-09-13T04:10:40.208Z,99.99
2016-09-13T04:11:40.197Z,99.99
2016-09-13T04:12:40.190Z,99.99
2016-09-13T04:13:39.841Z,99.99
2016-09-13T04:14:39.832Z,99.79
2016-09-13T04:15:40.134Z,99.98
2016-09-13T04:16:40.133Z,99.65
2016-09-13T04:17:40.111Z,99.74
2016-09-13T04:18:39.784Z,99.26
2016-09-13T04:19:40.097Z,99.07
2016-09-13T04:20:40.085Z,98.97
2016-09-13T04:21:39.749Z,99.16
2016-09-13T04:22:39.734Z,99.65
2016-09-13T04:23:39.719Z,99.26
2016-09-13T04:24:40.034Z,99.35
2016-09-13T04:25:40.014Z,99.65
2016-09-13T04:26:40.008Z,99.55
2016-09-13T04:27:39.678Z,99.35
2016-09-13T04:28:39.994Z,99.16
2016-09-13T04:29:39.973Z,99.35
2016-09-13T04:30:39.640Z,99.07
2016-09-13T04:31:39.946Z,99.35
2016-09-13T04:32:39.940Z,98.68
2016-09-13T04:33:39.937Z,98.87
2016-09-13T04:34:39.607Z,98.78
2016-09-13T04:35:39.920Z,99.16
2016-09-13T04:36:39.890Z,98.97
2016-09-13T04:37:39.559Z,99.65
2016-09-13T04:38:39.869Z,99.16
2016-09-13T04:39:39.852Z,99.45
2016-09-13T04:40:39.539Z,99.55
2016-09-13T04:41:39.821Z,99.65
2016-09-13T04:42:39.496Z,99.55
2016-09-13T04:43:39.483Z,99.84
2016-09-13T04:44:39.795Z,99.99
2016-09-13T04:45:39.782Z,99.99
2016-09-13T04:46:39.774Z,99.88
2016-09-13T04:47:39.766Z,99.93
2016-09-13T04:48:39.750Z,99.99
2016-09-13T04:49:39.424Z,99.99
2016-09-13T04:50:39.730Z,99.6
2016-09-13T04:51:39.726Z,99.99
2016-09-13T04:52:39.385Z,99.79
2016-09-13T04:53:39.694Z,99.99
2016-09-13T04:54:39.685Z,99.99
2016-09-13T04:55:39.354Z,99.99
2016-09-13T04:56:39.346Z,99.99
2016-09-13T04:57:39.652Z,99.84
2016-09-13T04:58:39.623Z,99.88
2016-09-13T04:59:39.618Z,99.99
2016-09-13T05:00:39.296Z,99.99
2016-09-13T05:01:39.271Z,99.99
2016-09-13T05:02:39.591Z,99.99
2016-09-13T05:03:39.573Z,99.99
2016-09-13T05:04:39.241Z,99.99
2016-09-13T05:05:39.545Z,99.99
2016-09-13T05:06:39.543Z,99.99
2016-09-13T05:07:39.522Z,99.99
2016-09-13T05:08:39.500Z,99.99
2016-09-13T05:09:39.177Z,99.99
2016-09-13T05:10:39.480Z,99.99
2016-09-13T05:11:39.481Z,99.99
2016-09-13T05:12:39.481Z,99.99
2016-09-13T05:13:39.452Z,99.93
2016-09-13T05:14:39.135Z,99.99
2016-09-13T05:15:39.099Z,99.93
2016-09-13T05:16:39.413Z,99.93
2016-09-13T05:17:39.410Z,99.99
2016-09-13T05:18:39.518Z,99.99
2016-09-13T05:19:39.373Z,99.99
2016-09-13T05:20:39.120Z,99.99
2016-09-13T05:21:39.044Z,99.99
2016-09-13T05:22:39.441Z,99.99
2016-09-13T05:23:39.013Z,99.99
2016-09-13T05:24:39.392Z,99.99
2016-09-13T05:25:39.323Z,99.99
2016-09-13T05:26:39.319Z,99.99
2016-09-13T05:27:39.383Z,99.99
2016-09-13T05:28:39.291Z,99.99
2016-09-13T05:29:39.286Z,99.99
2016-09-13T05:30:38.931Z,99.99
2016-09-13T05:31:39.238Z,99.99
2016-09-13T05:32:38.940Z,99.99
2016-09-13T05:33:39.207Z,99.99
2016-09-13T05:34:39.203Z,99.99
2016-09-13T05:35:39.199Z,99.99
2016-09-13T05:36:38.865Z,99.99
2016-09-13T05:37:38.854Z,99.99
2016-09-13T05:38:39.202Z,99.99
2016-09-13T05:39:39.155Z,99.99
2016-09-13T05:40:38.809Z,99.99
2016-09-13T05:41:39.132Z,99.99
2016-09-13T05:42:39.110Z,99.99
2016-09-13T05:43:39.096Z,99.99
2016-09-13T05:44:39.080Z,99.99
2016-09-13T05:45:39.084Z,99.99
2016-09-13T05:46:39.074Z,99.84
2016-09-13T05:47:39.060Z,99.99
2016-09-13T05:48:38.712Z,99.93
2016-09-13T05:49:39.030Z,99.99
2016-09-13T05:50:39.008Z,99.99
2016-09-13T05:51:39.022Z,99.99
2016-09-13T05:52:39.004Z,99.99
2016-09-13T05:53:38.982Z,99.99
2016-09-13T05:54:38.652Z,99.93
2016-09-13T05:55:38.964Z,99.99
2016-09-13T05:56:38.953Z,99.99
2016-09-13T05:57:38.616Z,99.99
2016-09-13T05:58:38.924Z,99.35
2016-09-13T05:59:38.913Z,99.65
2016-09-13T06:00:38.581Z,99.99
2016-09-13T06:01:38.890Z,99.84
2016-09-13T06:02:38.880Z,99.99
2016-09-13T06:03:38.856Z,99.99
2016-09-13T06:04:38.848Z,99.99
2016-09-13T06:05:38.841Z,99.99
2016-09-13T06:06:38.841Z,99.99
2016-09-13T06:07:38.817Z,99.99
2016-09-13T06:08:38.486Z,99.84
2016-09-13T06:09:38.793Z,99.99
2016-09-13T06:10:38.465Z,99.99
2016-09-13T06:11:38.770Z,99.99
2016-09-13T06:12:38.752Z,99.99
2016-09-13T06:13:38.747Z,99.74
2016-09-13T06:14:38.737Z,99.74
2016-09-13T06:15:38.730Z,99.35
2016-09-13T06:16:38.719Z,98.97
2016-09-13T06:17:38.695Z,98.92
2016-09-13T06:18:38.703Z,98.73
2016-09-13T06:19:38.671Z,98.92
2016-09-13T06:20:38.657Z,98.92
2016-09-13T06:21:38.663Z,97.96
2016-09-13T06:22:38.650Z,98.15
2016-09-13T06:23:38.629Z,97.57
2016-09-13T06:24:38.678Z,97.96
2016-09-13T06:25:38.599Z,97.52
2016-09-13T06:26:38.601Z,97.28
2016-09-13T06:27:38.588Z,96.84
2016-09-13T06:28:38.571Z,97.33
2016-09-13T06:29:38.562Z,96.36
2016-09-13T06:30:38.242Z,96.36
2016-09-13T06:31:38.545Z,96.26
2016-09-13T06:32:38.532Z,96.26
2016-09-13T06:33:38.201Z,95.88
2016-09-13T06:34:38.501Z,95.35
2016-09-13T06:35:38.486Z,95.45
2016-09-13T06:36:38.481Z,95.64
2016-09-13T06:37:38.469Z,94.67
2016-09-13T06:38:38.472Z,94.57
2016-09-13T06:39:38.130Z,95.25
2016-09-13T06:40:38.432Z,94.87
2016-09-13T06:41:38.422Z,94.29
2016-09-13T06:42:38.408Z,94.09
2016-09-13T06:43:38.097Z,94.48
2016-09-13T06:44:38.398Z,94.62
2016-09-13T06:45:38.380Z,93.95
2016-09-13T06:46:38.381Z,93.95
2016-09-13T06:47:38.040Z,94.57
2016-09-13T06:48:38.350Z,94.43
2016-09-13T06:49:38.018Z,93.95
2016-09-13T06:50:38.329Z,93.85
2016-09-13T06:51:38.319Z,94.14
2016-09-13T06:52:38.306Z,93.85
2016-09-13T06:53:37.972Z,94.14
2016-09-13T06:54:38.276Z,94.28
2016-09-13T06:55:37.959Z,93.8
2016-09-13T06:56:37.942Z,92.93
2016-09-13T06:57:38.253Z,92.74
2016-09-13T06:58:38.242Z,93.02
2016-09-13T06:59:38.228Z,93.51
2016-09-13T07:00:38.219Z,93.22
2016-09-13T07:01:38.203Z,93.12
2016-09-13T07:02:38.193Z,92.74
2016-09-13T07:03:38.189Z,92.64
2016-09-13T07:04:38.173Z,92.25
2016-09-13T07:05:38.172Z,92.35
2016-09-13T07:06:38.155Z,92.3
2016-09-13T07:07:37.819Z,91.33
2016-09-13T07:08:38.131Z,91.42
2016-09-13T07:09:38.123Z,91.24
2016-09-13T07:10:38.111Z,91.62
2016-09-13T07:11:38.099Z,90.46
2016-09-13T07:12:37.771Z,90.65
2016-09-13T07:13:37.756Z,90.94
2016-09-13T07:14:38.068Z,91.04
2016-09-13T07:15:37.739Z,90.94
2016-09-13T07:16:38.057Z,90.84
2016-09-13T07:17:38.038Z,90.46
2016-09-13T07:18:38.031Z,89.34
2016-09-13T07:19:38.017Z,89.49
2016-09-13T07:20:37.686Z,89.78
2016-09-13T07:21:37.996Z,90.31
2016-09-13T07:22:37.989Z,90.8
2016-09-13T07:23:37.667Z,90.31
2016-09-13T07:24:37.969Z,88.57
2016-09-13T07:25:37.649Z,88.32
2016-09-13T07:26:37.633Z,89.09
2016-09-13T07:27:37.624Z,89.53
2016-09-13T07:28:37.926Z,89.09
2016-09-13T07:29:37.919Z,89
2016-09-13T07:30:37.589Z,88.13
2016-09-13T07:31:37.898Z,88.51
2016-09-13T07:32:37.574Z,87.93
2016-09-13T07:33:37.879Z,87.84
2016-09-13T07:34:37.921Z,88.03
2016-09-13T07:35:37.542Z,87.93
2016-09-13T07:36:37.577Z,88.03
2016-09-13T07:37:37.523Z,88.46
2016-09-13T07:38:37.560Z,88.75
2016-09-13T07:39:37.820Z,88.17
2016-09-13T07:40:37.490Z,88.17
2016-09-13T07:41:37.483Z,88.56
2016-09-13T07:42:37.472Z,88.31
2016-09-13T07:43:37.782Z,89.18
2016-09-13T07:44:37.450Z,87.34
2016-09-13T07:45:37.772Z,87.92
2016-09-13T07:46:37.750Z,87.82
2016-09-13T07:47:37.743Z,86.99
2016-09-13T07:48:37.731Z,86.99
2016-09-13T07:49:37.730Z,86.71
2016-09-13T07:50:37.716Z,86.32
2016-09-13T07:51:37.709Z,85.44
2016-09-13T07:52:37.703Z,85.88
2016-09-13T07:53:37.374Z,85.19
2016-09-13T07:54:37.672Z,85.88
2016-09-13T07:55:37.665Z,85.29
2016-09-13T07:56:37.341Z,85.49
2016-09-13T07:57:37.649Z,84.71
2016-09-13T07:58:37.323Z,84.81
2016-09-13T07:59:37.641Z,85.49
2016-09-13T08:00:37.623Z,85
2016-09-13T08:01:37.609Z,84.32
2016-09-13T08:02:37.614Z,83.97
2016-09-13T08:03:37.611Z,83.88
2016-09-13T08:04:37.588Z,83.39
2016-09-13T08:05:37.311Z,83.88
2016-09-13T08:06:37.564Z,84.36
2016-09-13T08:07:37.679Z,84.66
2016-09-13T08:08:37.555Z,84.41
2016-09-13T08:09:37.228Z,83.63
2016-09-13T08:10:37.541Z,83.14
2016-09-13T08:11:37.670Z,83.72
2016-09-13T08:12:37.521Z,82.85
2016-09-13T08:13:37.194Z,82.65
2016-09-13T08:14:37.193Z,82.95
2016-09-13T08:15:37.489Z,82.85
2016-09-13T08:16:37.165Z,82.85
2016-09-13T08:17:37.485Z,82.31
2016-09-13T08:18:37.466Z,82.99
2016-09-13T08:19:37.144Z,82.6
2016-09-13T08:20:37.502Z,82.21
2016-09-13T08:21:37.149Z,81.92
2016-09-13T08:22:37.117Z,82.5
2016-09-13T08:23:37.444Z,81.63
2016-09-13T08:24:37.525Z,81.63
2016-09-13T08:25:37.092Z,81.63
2016-09-13T08:26:37.406Z,82.11
2016-09-13T08:27:37.396Z,82.5
2016-09-13T08:28:37.061Z,82.27
2016-09-13T08:29:37.374Z,82.02
2016-09-13T08:30:37.375Z,80.76
2016-09-13T08:31:37.363Z,79.49
2016-09-13T08:32:37.031Z,79.88
2016-09-13T08:33:37.343Z,80.76
2016-09-13T08:34:37.026Z,80.56
2016-09-13T08:35:37.328Z,80.11
2016-09-13T08:36:37.341Z,79.92
2016-09-13T08:37:37.314Z,79.24
2016-09-13T08:38:37.305Z,79.14
2016-09-13T08:39:37.291Z,79.04
2016-09-13T08:40:37.285Z,79.47
2016-09-13T08:41:36.965Z,78.99
2016-09-13T08:42:37.276Z,78.89
2016-09-13T08:43:37.293Z,79.02
2016-09-13T08:44:37.257Z,79.41
2016-09-13T08:45:37.247Z,79.71
2016-09-13T08:46:37.243Z,79.25
2016-09-13T08:47:36.919Z,78.77
2016-09-13T08:48:37.237Z,78.48
2016-09-13T08:49:37.216Z,78.38
2016-09-13T08:50:37.351Z,79.25
2016-09-13T08:51:36.886Z,78.03
2016-09-13T08:52:37.209Z,78.13
2016-09-13T08:53:36.888Z,78.13
2016-09-13T08:54:36.937Z,77.06
2016-09-13T08:55:36.868Z,76.57
2016-09-13T08:56:37.176Z,76.76
2016-09-13T08:57:36.845Z,78.13
2016-09-13T08:58:37.267Z,77.29
2016-09-13T08:59:37.156Z,76.7
2016-09-13T09:00:36.826Z,76.61
2016-09-13T09:01:36.810Z,77.29
2016-09-13T09:02:37.130Z,76.21
2016-09-13T09:03:37.117Z,75.34
2016-09-13T09:04:37.113Z,75.34
2016-09-13T09:05:37.100Z,75.04
2016-09-13T09:06:37.103Z,74.85
2016-09-13T09:07:37.086Z,75.24
2016-09-13T09:08:37.130Z,75.63
2016-09-13T09:09:36.770Z,75.63
2016-09-13T09:10:37.065Z,76.31
2016-09-13T09:11:36.742Z,76.45
2016-09-13T09:12:37.060Z,75.57
2016-09-13T09:13:36.731Z,75.47
2016-09-13T09:14:36.721Z,75.41
2016-09-13T09:15:37.029Z,74.05
2016-09-13T09:16:37.025Z,73.13
2016-09-13T09:17:37.028Z,73.23
2016-09-13T09:18:37.010Z,73.33
2016-09-13T09:19:36.687Z,72.94
2016-09-13T09:20:36.997Z,73.68
2016-09-13T09:21:36.667Z,73.1
2016-09-13T09:22:36.984Z,74.37
2016-09-13T09:23:36.666Z,74.66
2016-09-13T09:24:36.644Z,75.04
2016-09-13T09:25:36.960Z,74.69
2016-09-13T09:26:36.632Z,75.12
2016-09-13T09:27:36.599Z,74.34
2016-09-13T09:28:36.583Z,74.44
2016-09-13T09:29:36.883Z,73.69
2016-09-13T09:30:36.604Z,74.18
2016-09-13T09:31:36.869Z,73.4
2016-09-13T09:32:36.879Z,73.24
2016-09-13T09:33:36.568Z,73.83
2016-09-13T09:34:36.916Z,71.48
2016-09-13T09:35:36.572Z,71.58
2016-09-13T09:36:36.570Z,72.07
2016-09-13T09:37:36.868Z,69.82
2016-09-13T09:38:36.931Z,70.51
2016-09-13T09:39:36.869Z,69.73
2016-09-13T09:40:36.901Z,70.44
2016-09-13T09:41:36.849Z,70.93
2016-09-13T09:42:36.892Z,71.22
2016-09-13T09:43:36.511Z,70.73
2016-09-13T09:44:36.831Z,71.81
2016-09-13T09:45:36.828Z,71.91
2016-09-13T09:46:36.818Z,70.73
2016-09-13T09:47:36.493Z,69.95
2016-09-13T09:48:36.799Z,70.57
2016-09-13T09:49:36.498Z,70.38
2016-09-13T09:50:36.477Z,71.06
2016-09-13T09:51:36.794Z,71.36
2016-09-13T09:52:36.779Z,70.21
2016-09-13T09:53:36.471Z,69.89
2016-09-13T09:54:36.783Z,69.89
2016-09-13T09:55:36.768Z,70.02
2016-09-13T09:56:36.763Z,70.18
2016-09-13T09:57:36.446Z,69.89
2016-09-13T09:58:36.753Z,69.34
2016-09-13T09:59:36.418Z,69.82
2016-09-13T10:00:36.741Z,69.34
2016-09-13T10:01:36.737Z,70.35
2016-09-13T10:02:36.721Z,68.39
2016-09-13T10:03:36.739Z,68.49
2016-09-13T10:04:36.738Z,69.37
2016-09-13T10:05:36.709Z,68.88
2016-09-13T10:06:36.699Z,68.78
2016-09-13T10:07:36.708Z,67.54
2016-09-13T10:08:36.691Z,68.49
2016-09-13T10:09:36.380Z,68
2016-09-13T10:10:36.692Z,67.22
2016-09-13T10:11:36.383Z,68.1
2016-09-13T10:12:36.369Z,68.04
2016-09-13T10:13:36.678Z,68.82
2016-09-13T10:14:36.678Z,68.52
2016-09-13T10:15:36.691Z,68.33
2016-09-13T10:16:36.661Z,67.29
2016-09-13T10:17:36.342Z,66.89
2016-09-13T10:18:36.336Z,65.75
2016-09-13T10:19:36.655Z,65.72
2016-09-13T10:20:36.641Z,66.6
2016-09-13T10:21:36.320Z,66.6
2016-09-13T10:22:36.640Z,66.11
2016-09-13T10:23:36.630Z,66.2
2016-09-13T10:24:36.630Z,66.44
2016-09-13T10:25:36.312Z,65.16
2016-09-13T10:26:36.614Z,65.16
2016-09-13T10:27:36.613Z,66.24
2016-09-13T10:28:36.617Z,64.31
2016-09-13T10:29:36.285Z,65.06
2016-09-13T10:30:36.596Z,65.06
2016-09-13T10:31:36.611Z,65.16
2016-09-13T10:32:36.265Z,64.97
2016-09-13T10:33:36.580Z,64.7
2016-09-13T10:34:36.269Z,64.61
2016-09-13T10:35:36.589Z,65.78
2016-09-13T10:36:36.571Z,66.11
2016-09-13T10:37:36.251Z,65.22
2016-09-13T10:38:36.572Z,64.08
2016-09-13T10:39:36.253Z,64.34
2016-09-13T10:40:36.235Z,65
2016-09-13T10:41:36.549Z,65.32
2016-09-13T10:42:36.233Z,63.46
2016-09-13T10:43:36.542Z,64.93
2016-09-13T10:44:36.219Z,63.95
2016-09-13T10:45:36.539Z,63.75
2016-09-13T10:46:36.535Z,63.29
2016-09-13T10:47:36.544Z,63.36
2016-09-13T10:48:36.208Z,64.25
2016-09-13T10:49:36.523Z,63.59
2016-09-13T10:50:36.519Z,64.76
2016-09-13T10:51:36.200Z,64.57
2016-09-13T10:52:36.519Z,63.03
2016-09-13T10:53:36.508Z,64.11
2016-09-13T10:54:36.499Z,63.32
2016-09-13T10:55:36.497Z,63.62
2016-09-13T10:56:36.493Z,64.31
2016-09-13T10:57:36.177Z,62.84
2016-09-13T10:58:36.490Z,64.86
2016-09-13T10:59:36.495Z,64.31
2016-09-13T11:00:36.172Z,63.71
2016-09-13T11:01:36.475Z,62.93
2016-09-13T11:02:36.158Z,63.78
2016-09-13T11:03:36.153Z,64.37
2016-09-13T11:04:36.152Z,64.67
2016-09-13T11:05:36.152Z,62.73
2016-09-13T11:06:36.142Z,61.65
2016-09-13T11:07:36.151Z,62.24
2016-09-13T11:08:36.463Z,61.88
2016-09-13T11:09:36.443Z,61.95
2016-09-13T11:10:36.441Z,62.18
2016-09-13T11:11:36.129Z,62.08
2016-09-13T11:12:36.119Z,62.9
2016-09-13T11:13:36.123Z,62.7
2016-09-13T11:14:36.443Z,61.16
2016-09-13T11:15:36.443Z,60.83
2016-09-13T11:16:36.430Z,61.13
2016-09-13T11:17:36.418Z,61.03
2016-09-13T11:18:36.416Z,61.61
2016-09-13T11:19:36.417Z,61.61
2016-09-13T11:20:36.090Z,61.52
2016-09-13T11:21:36.411Z,60.63
2016-09-13T11:22:36.095Z,60.83
2016-09-13T11:23:36.077Z,62.14
2016-09-13T11:24:36.090Z,62.63
2016-09-13T11:25:36.400Z,61.65
2016-09-13T11:26:36.399Z,61.58
2016-09-13T11:27:36.071Z,61.48
2016-09-13T11:28:36.390Z,60.6
2016-09-13T11:29:36.389Z,60.79
2016-09-13T11:30:36.374Z,60.6
2016-09-13T11:31:36.378Z,61.31
2016-09-13T11:32:36.372Z,59.54
2016-09-13T11:33:36.362Z,58.33
2016-09-13T11:34:36.358Z,60.2
2016-09-13T11:35:36.370Z,59.54
2016-09-13T11:36:36.355Z,59.41
2016-09-13T11:37:36.038Z,58.95
2016-09-13T11:38:36.351Z,58.26
2016-09-13T11:39:36.348Z,58.23
2016-09-13T11:40:36.038Z,57.84
2016-09-13T11:41:36.025Z,58.23
2016-09-13T11:42:36.014Z,57.18
2016-09-13T11:43:36.014Z,57.94
2016-09-13T11:44:36.329Z,58.33
2016-09-13T11:45:36.013Z,58.26
2016-09-13T11:46:36.327Z,58.36
2016-09-13T11:47:36.319Z,58.19
2016-09-13T11:48:35.998Z,57.14
2016-09-13T11:49:35.998Z,57.9
2016-09-13T11:50:36.004Z,57.53
2016-09-13T11:51:36.304Z,58.02
2016-09-13T11:52:35.987Z,57.04
2016-09-13T11:53:36.314Z,57.82
2016-09-13T11:54:35.988Z,55.95
2016-09-13T11:55:36.304Z,55.95
2016-09-13T11:56:36.307Z,56.57
2016-09-13T11:57:36.289Z,56.87
2016-09-13T11:58:36.286Z,55.49
2016-09-13T11:59:35.971Z,55.98
2016-09-13T12:00:36.291Z,57.06
2016-09-13T12:01:36.295Z,57.19
2016-09-13T12:02:36.273Z,55.32
2016-09-13T12:03:36.288Z,56.01
2016-09-13T12:04:36.277Z,54.82
2016-09-13T12:05:35.950Z,55.22
2016-09-13T12:06:35.957Z,55.74
2016-09-13T12:07:36.274Z,54.93
2016-09-13T12:08:35.956Z,54.65
2016-09-13T12:09:36.275Z,55.44
2016-09-13T12:10:35.956Z,55.41
2016-09-13T12:11:35.942Z,55.94
2016-09-13T12:12:36.258Z,55.44
2016-09-13T12:13:36.260Z,55.15
2016-09-13T12:14:36.246Z,55.74
2016-09-13T12:15:35.942Z,55.47
2016-09-13T12:16:35.921Z,55.18
2016-09-13T12:17:36.254Z,55.07
2016-09-13T12:18:35.934Z,53.47
2016-09-13T12:19:36.255Z,53.89
2016-09-13T12:20:35.917Z,52.61
2016-09-13T12:21:35.917Z,52.68
2016-09-13T12:22:35.907Z,51.3
2016-09-13T12:23:36.246Z,50.02
2016-09-13T12:24:36.242Z,49.9
2016-09-13T12:25:36.249Z,50.19
2016-09-13T12:26:36.232Z,50.68
2016-09-13T12:27:35.901Z,50.78
2016-09-13T12:28:36.223Z,50.51
2016-09-13T12:29:35.909Z,51.4
2016-09-13T12:30:35.901Z,51.32
2016-09-13T12:31:36.211Z,49.55
2016-09-13T12:32:36.216Z,49.4
2016-09-13T12:33:35.889Z,50.19
2016-09-13T12:34:36.211Z,49.69
2016-09-13T12:35:36.207Z,49.4
2016-09-13T12:36:35.890Z,50.19
2016-09-13T12:37:35.878Z,50.46
2016-09-13T12:38:36.202Z,50.63
2016-09-13T12:39:36.201Z,50.14
2016-09-13T12:40:36.203Z,49.97
2016-09-13T12:41:35.875Z,49.77
2016-09-13T12:42:36.194Z,49.4
2016-09-13T12:43:36.203Z,49.2
2016-09-13T12:44:36.189Z,48.81
2016-09-13T12:45:35.868Z,48.83
2016-09-13T12:46:35.863Z,49.28
2016-09-13T12:47:35.859Z,49.97
2016-09-13T12:48:35.869Z,49.26
2016-09-13T12:49:35.862Z,49.95
2016-09-13T12:50:35.858Z,49.92
2016-09-13T12:51:35.851Z,49.9
2016-09-13T12:52:36.162Z,50.09
2016-09-13T12:53:35.837Z,50.42
2016-09-13T12:54:36.153Z,50.51
2016-09-13T12:55:35.835Z,51.23